Time;durP1;ratioP1;P1;durP2;ratioP2;P2;SDS_P1;SDS_P2;PMS_P1;PMS_P2;Temp;Humidity;BMP_temperature;BMP_pressure;BME280_temperature;BME280_humidity;BME280_pressure;Samples;Min_cycle;Max_cycle;Signal;HPM_P1;HPM_P2
2023/09/04 00:01:42;;;;;;;22.40;11.38;;;;;;;;;;5018450;28;20415;-67
2023/09/04 00:04:08;;;;;;;20.20;10.95;;;;;;;;;;5017829;28;20461;-67
2023/09/04 00:06:33;;;;;;;17.42;9.95;;;;;;;;;;5014674;28;20030;-67
2023/09/04 00:08:59;;;;;;;20.42;10.70;;;;;;;;;;5018518;28;20037;-67
2023/09/04 00:11:28;;;;;;;17.38;9.25;;;;;;;;;;5020660;28;20046;-67
2023/09/04 00:13:53;;;;;;;21.85;10.32;;;;;;;;;;5018563;28;20041;-67
2023/09/04 00:16:19;;;;;;;18.20;9.98;;;;;;;;;;5005074;28;20030;-67
2023/09/04 00:18:44;;;;;;;19.90;10.25;;;;;;;;;;5018372;28;20428;-67
2023/09/04 00:21:10;;;;;;;21.92;10.88;;;;;;;;;;5014158;28;20033;-67
2023/09/04 00:23:35;;;;;;;20.63;11.15;;;;;;;;;;5016661;28;20583;-67
2023/09/04 00:26:00;;;;;;;20.40;11.18;;;;;;;;;;5020832;28;20032;-67
2023/09/04 00:28:26;;;;;;;21.45;11.57;;;;;;;;;;5019375;28;20022;-67
2023/09/04 00:30:51;;;;;;;21.52;11.35;;;;;;;;;;5013631;28;20581;-67
2023/09/04 00:33:17;;;;;;;22.38;10.70;;;;;;;;;;5006936;28;20041;-67
2023/09/04 00:35:42;;;;;;;24.58;11.02;;;;;;;;;;5010789;28;20037;-67
2023/09/04 00:38:07;;;;;;;22.83;11.00;;;;;;;;;;5020499;28;20432;-67
2023/09/04 00:40:33;;;;;;;23.25;11.02;;;;;;;;;;5016944;28;20093;-67
2023/09/04 00:42:58;;;;;;;21.45;10.98;;;;;;;;;;5023918;28;20109;-67
2023/09/04 00:45:24;;;;;;;22.98;11.50;;;;;;;;;;5027349;28;20048;-67
2023/09/04 00:47:51;;;;;;;20.50;10.65;;;;;;;;;;4998037;28;20088;-67
2023/09/04 00:50:21;;;;;;;21.60;11.63;;;;;;;;;;4995623;28;20108;-67
2023/09/04 00:52:48;;;;;;;20.73;10.95;;;;;;;;;;5001027;28;20125;-67
2023/09/04 00:55:14;;;;;;;20.73;11.18;;;;;;;;;;5009004;28;20510;-67
2023/09/04 00:57:42;;;;;;;20.83;11.35;;;;;;;;;;5014742;28;20014;-67
2023/09/04 01:00:10;;;;;;;22.77;12.20;;;;;;;;;;5020058;28;20034;-67
2023/09/04 01:02:37;;;;;;;22.73;11.45;;;;;;;;;;5017346;28;20091;-67
2023/09/04 01:05:03;;;;;;;19.80;11.43;;;;;;;;;;5014021;28;20041;-67
2023/09/04 01:07:29;;;;;;;22.30;11.85;;;;;;;;;;5012489;28;20057;-67
2023/09/04 01:09:55;;;;;;;25.08;12.55;;;;;;;;;;5012518;28;20471;-67
2023/09/04 01:12:35;;;;;;;22.60;11.93;;;;;;;;;;5019329;28;20038;-67
2023/09/04 01:15:02;;;;;;;24.95;12.25;;;;;;;;;;5019081;28;20064;-67
2023/09/04 01:17:28;;;;;;;22.88;11.52;;;;;;;;;;5017155;28;20037;-67
2023/09/04 01:19:53;;;;;;;23.23;11.60;;;;;;;;;;5010193;28;20087;-67
2023/09/04 01:22:19;;;;;;;27.88;12.07;;;;;;;;;;5013240;28;20541;-67
2023/09/04 01:24:46;;;;;;;20.95;10.73;;;;;;;;;;5015099;28;20021;-67
2023/09/04 01:27:39;;;;;;;21.33;10.90;;;;;;;;;;5011707;28;20034;-67
2023/09/04 01:30:17;;;;;;;22.48;11.98;;;;;;;;;;5013104;28;20044;-67
2023/09/04 01:32:54;;;;;;;23.13;12.27;;;;;;;;;;5003431;28;20037;-67
2023/09/04 01:35:22;;;;;;;25.08;11.95;;;;;;;;;;5012717;28;20033;-67
2023/09/04 01:37:48;;;;;;;22.92;11.70;;;;;;;;;;5018169;28;20029;-67
2023/09/04 01:40:14;;;;;;;21.08;11.13;;;;;;;;;;5012547;28;20050;-67
2023/09/04 01:42:39;;;;;;;24.65;12.27;;;;;;;;;;5015643;28;20464;-67
2023/09/04 01:45:05;;;;;;;22.83;12.48;;;;;;;;;;5019331;28;20065;-67
2023/09/04 01:47:30;;;;;;;23.10;11.57;;;;;;;;;;5016008;28;20033;-67
2023/09/04 01:49:56;;;;;;;23.58;11.27;;;;;;;;;;5013107;28;20037;-67
2023/09/04 01:52:21;;;;;;;24.15;11.63;;;;;;;;;;5008436;28;20127;-67
2023/09/04 01:54:47;;;;;;;21.35;11.00;;;;;;;;;;5016926;28;20080;-67
2023/09/04 01:57:12;;;;;;;22.35;11.00;;;;;;;;;;5013173;28;20419;-67
2023/09/04 01:59:37;;;;;;;21.35;10.52;;;;;;;;;;5014149;28;20050;-67
2023/09/04 02:02:03;;;;;;;22.67;11.73;;;;;;;;;;5010862;28;20862;-67
2023/09/04 02:04:31;;;;;;;20.80;10.95;;;;;;;;;;5013911;28;20036;-66
2023/09/04 02:06:58;;;;;;;25.05;11.55;;;;;;;;;;5023049;28;20014;-67
2023/09/04 02:09:23;;;;;;;22.17;11.13;;;;;;;;;;5029304;28;20460;-67
2023/09/04 02:11:48;;;;;;;26.02;11.70;;;;;;;;;;5015773;28;20038;-67
2023/09/04 02:14:14;;;;;;;23.88;11.75;;;;;;;;;;5012476;28;20060;-67
2023/09/04 02:16:39;;;;;;;21.67;10.95;;;;;;;;;;5014388;28;20049;-67
2023/09/04 02:19:05;;;;;;;21.92;10.85;;;;;;;;;;5019128;28;20033;-67
2023/09/04 02:21:30;;;;;;;22.35;11.25;;;;;;;;;;5016012;28;20067;-67
2023/09/04 02:23:55;;;;;;;22.05;10.80;;;;;;;;;;5011882;28;20037;-67
2023/09/04 02:26:21;;;;;;;21.55;10.88;;;;;;;;;;5014899;28;20033;-67
2023/09/04 02:28:46;;;;;;;20.50;10.07;;;;;;;;;;5018823;28;20034;-67
2023/09/04 02:31:12;;;;;;;22.98;10.27;;;;;;;;;;5015686;28;20033;-67
2023/09/04 02:33:37;;;;;;;20.73;10.27;;;;;;;;;;5011392;28;20021;-67
2023/09/04 02:36:03;;;;;;;26.30;10.77;;;;;;;;;;5013765;28;20030;-67
2023/09/04 02:38:28;;;;;;;20.52;9.80;;;;;;;;;;5018571;28;20185;-67
2023/09/04 02:40:54;;;;;;;21.15;10.85;;;;;;;;;;5016411;28;20531;-67
2023/09/04 02:43:19;;;;;;;21.65;11.10;;;;;;;;;;5012060;28;20528;-67
2023/09/04 02:45:46;;;;;;;20.05;10.05;;;;;;;;;;5013817;28;20022;-67
2023/09/04 02:48:11;;;;;;;24.17;11.48;;;;;;;;;;5017951;28;20037;-67
2023/09/04 02:50:36;;;;;;;21.30;10.52;;;;;;;;;;5017221;28;20029;-67
2023/09/04 02:53:02;;;;;;;20.30;9.70;;;;;;;;;;5007233;28;20026;-67
2023/09/04 02:55:27;;;;;;;19.33;10.48;;;;;;;;;;5005632;28;20478;-67
2023/09/04 02:57:53;;;;;;;20.42;11.05;;;;;;;;;;5011889;28;20156;-67
2023/09/04 03:00:19;;;;;;;22.77;11.30;;;;;;;;;;5017686;28;20033;-67
2023/09/04 03:02:44;;;;;;;18.65;10.00;;;;;;;;;;5017775;28;20627;-67
2023/09/04 03:05:10;;;;;;;24.52;11.40;;;;;;;;;;5012731;28;20029;-67
2023/09/04 03:07:36;;;;;;;21.02;11.32;;;;;;;;;;5011635;28;20036;-67
2023/09/04 03:10:01;;;;;;;23.80;10.80;;;;;;;;;;5017115;28;20026;-67
2023/09/04 03:12:29;;;;;;;22.08;11.68;;;;;;;;;;5017952;28;20036;-67
2023/09/04 03:15:01;;;;;;;24.27;11.73;;;;;;;;;;5013491;28;20044;-67
2023/09/04 03:17:27;;;;;;;26.63;11.65;;;;;;;;;;5008327;28;20040;-67
2023/09/04 03:19:54;;;;;;;21.45;11.57;;;;;;;;;;5005190;28;20462;-67
2023/09/04 03:22:20;;;;;;;20.02;10.43;;;;;;;;;;5010585;28;20097;-67
2023/09/04 03:24:46;;;;;;;20.58;10.60;;;;;;;;;;5014363;28;20050;-67
2023/09/04 03:27:12;;;;;;;20.13;10.60;;;;;;;;;;5018320;28;20106;-67
2023/09/04 03:29:37;;;;;;;21.35;10.50;;;;;;;;;;5017212;28;20095;-67
2023/09/04 03:32:03;;;;;;;23.73;10.95;;;;;;;;;;5015556;28;20041;-67
2023/09/04 03:34:29;;;;;;;23.25;11.25;;;;;;;;;;5024446;28;20169;-67
2023/09/04 03:36:54;;;;;;;21.90;11.93;;;;;;;;;;5019089;28;20026;-67
2023/09/04 03:39:20;;;;;;;24.52;11.75;;;;;;;;;;5017199;28;20614;-67
2023/09/04 03:41:45;;;;;;;25.92;12.02;;;;;;;;;;5021803;28;20099;-67
2023/09/04 03:44:10;;;;;;;19.98;10.23;;;;;;;;;;5007795;28;20044;-67
2023/09/04 03:46:36;;;;;;;22.75;10.30;;;;;;;;;;5018350;28;20049;-67
2023/09/04 03:49:01;;;;;;;20.83;10.85;;;;;;;;;;5015530;28;20032;-67
2023/09/04 03:51:27;;;;;;;23.83;11.25;;;;;;;;;;5017526;28;20422;-67
2023/09/04 03:53:53;;;;;;;22.88;11.15;;;;;;;;;;5007659;28;20057;-66
2023/09/04 03:56:18;;;;;;;23.92;11.43;;;;;;;;;;5003255;28;20084;-67
2023/09/04 03:58:44;;;;;;;21.52;10.90;;;;;;;;;;5016046;28;20037;-67
2023/09/04 04:01:09;;;;;;;23.70;11.50;;;;;;;;;;5013811;28;20034;-67
2023/09/04 04:03:34;;;;;;;22.40;11.65;;;;;;;;;;5019601;28;20029;-66
2023/09/04 04:06:07;;;;;;;25.58;11.98;;;;;;;;;;5019657;28;20048;-67
2023/09/04 04:08:32;;;;;;;23.10;11.40;;;;;;;;;;5017363;28;20045;-67
2023/09/04 04:10:58;;;;;;;22.23;10.82;;;;;;;;;;5000290;28;20594;-67
2023/09/04 04:13:24;;;;;;;22.67;11.15;;;;;;;;;;5018741;28;20813;-67
2023/09/04 04:15:49;;;;;;;22.70;11.45;;;;;;;;;;5025969;28;20053;-67
2023/09/04 04:18:14;;;;;;;25.73;11.55;;;;;;;;;;5018320;28;20129;-66
2023/09/04 04:20:40;;;;;;;23.63;11.88;;;;;;;;;;5019412;28;20494;-67
2023/09/04 04:23:05;;;;;;;22.35;11.50;;;;;;;;;;5017387;28;20099;-66
2023/09/04 04:25:31;;;;;;;19.80;10.48;;;;;;;;;;5014393;28;20030;-67
2023/09/04 04:27:56;;;;;;;24.40;11.07;;;;;;;;;;5016403;28;20026;-67
2023/09/04 04:30:22;;;;;;;22.73;10.18;;;;;;;;;;5020878;28;20111;-67
2023/09/04 04:32:50;;;;;;;23.17;11.73;;;;;;;;;;5005552;28;20741;-67
2023/09/04 04:35:16;;;;;;;19.33;10.27;;;;;;;;;;5020589;28;20045;-67
2023/09/04 04:37:41;;;;;;;22.65;11.10;;;;;;;;;;5018683;28;20060;-66
2023/09/04 04:40:07;;;;;;;21.95;10.90;;;;;;;;;;5006175;28;20041;-66
2023/09/04 04:42:32;;;;;;;23.02;11.55;;;;;;;;;;5016590;28;20049;-67
2023/09/04 04:44:58;;;;;;;21.67;10.93;;;;;;;;;;5014259;28;20770;-66
2023/09/04 04:47:23;;;;;;;27.52;10.48;;;;;;;;;;5017406;28;20088;-67
2023/09/04 04:49:48;;;;;;;25.50;11.85;;;;;;;;;;5022951;28;20438;-66
2023/09/04 04:52:14;;;;;;;29.00;11.13;;;;;;;;;;5019275;28;20427;-66
2023/09/04 04:54:39;;;;;;;24.30;11.52;;;;;;;;;;5010637;28;20461;-66
2023/09/04 04:57:04;;;;;;;21.13;10.50;;;;;;;;;;5004342;28;20053;-66
2023/09/04 04:59:30;;;;;;;23.48;10.95;;;;;;;;;;5024744;28;20046;-67
2023/09/04 05:01:58;;;;;;;24.40;11.20;;;;;;;;;;5019307;28;20041;-68
2023/09/04 05:04:23;;;;;;;22.65;11.30;;;;;;;;;;5019132;28;20519;-68
2023/09/04 05:06:49;;;;;;;21.95;10.13;;;;;;;;;;5021783;28;20088;-68
2023/09/04 05:09:15;;;;;;;20.55;10.27;;;;;;;;;;5019215;28;20052;-68
2023/09/04 05:11:40;;;;;;;23.48;10.23;;;;;;;;;;5015204;28;20037;-68
2023/09/04 05:14:05;;;;;;;21.05;10.10;;;;;;;;;;5011722;28;20125;-68
2023/09/04 05:16:31;;;;;;;22.52;10.70;;;;;;;;;;5005437;28;20072;-68
2023/09/04 05:18:57;;;;;;;19.98;10.52;;;;;;;;;;5015953;28;20021;-68
2023/09/04 05:21:23;;;;;;;23.27;10.45;;;;;;;;;;5022010;28;20048;-68
2023/09/04 05:23:49;;;;;;;21.58;10.23;;;;;;;;;;5019553;28;20033;-68
2023/09/04 05:26:14;;;;;;;20.77;10.70;;;;;;;;;;5015532;28;20049;-68
2023/09/04 05:28:40;;;;;;;21.27;10.98;;;;;;;;;;5013323;28;20029;-68
2023/09/04 05:31:05;;;;;;;20.70;9.70;;;;;;;;;;5017110;28;20029;-68
2023/09/04 05:33:30;;;;;;;22.70;10.45;;;;;;;;;;5019477;28;20561;-68
2023/09/04 05:35:56;;;;;;;20.98;9.93;;;;;;;;;;5011239;28;20049;-68
2023/09/04 05:38:22;;;;;;;18.45;9.07;;;;;;;;;;5009884;28;20038;-68
2023/09/04 05:40:49;;;;;;;25.67;10.70;;;;;;;;;;5000847;28;20121;-68
2023/09/04 05:43:14;;;;;;;22.98;10.63;;;;;;;;;;4994426;28;20023;-68
2023/09/04 05:45:39;;;;;;;22.60;10.30;;;;;;;;;;5009612;28;20029;-68
2023/09/04 05:48:06;;;;;;;22.27;9.98;;;;;;;;;;5012846;28;20057;-69
2023/09/04 05:50:31;;;;;;;21.42;10.27;;;;;;;;;;5012807;28;20030;-68
2023/09/04 05:52:57;;;;;;;21.75;9.88;;;;;;;;;;5006460;28;20044;-68
2023/09/04 05:55:22;;;;;;;21.60;9.77;;;;;;;;;;4991830;28;20037;-68
2023/09/04 05:57:48;;;;;;;19.63;9.30;;;;;;;;;;4997542;28;20017;-68
2023/09/04 06:00:13;;;;;;;21.95;9.93;;;;;;;;;;5008904;28;20034;-68
2023/09/04 06:02:38;;;;;;;23.30;9.98;;;;;;;;;;5005594;28;20145;-68
2023/09/04 06:05:04;;;;;;;21.27;10.45;;;;;;;;;;5005272;28;20029;-68
2023/09/04 06:07:30;;;;;;;18.73;9.63;;;;;;;;;;5004111;28;20507;-68
2023/09/04 06:09:55;;;;;;;18.38;9.60;;;;;;;;;;5006234;28;20144;-68
2023/09/04 06:12:21;;;;;;;22.83;9.25;;;;;;;;;;4996254;28;20030;-68
2023/09/04 06:14:46;;;;;;;17.58;8.90;;;;;;;;;;5005816;28;20068;-68
2023/09/04 06:17:11;;;;;;;19.80;10.23;;;;;;;;;;5005532;28;20072;-68
2023/09/04 06:19:37;;;;;;;22.20;9.20;;;;;;;;;;5007258;28;20038;-68
2023/09/04 06:22:02;;;;;;;18.05;9.20;;;;;;;;;;5013565;28;20424;-68
2023/09/04 06:24:27;;;;;;;19.85;9.23;;;;;;;;;;5015917;28;20034;-68
2023/09/04 06:26:53;;;;;;;19.08;9.13;;;;;;;;;;5006244;28;20707;-68
2023/09/04 06:29:18;;;;;;;16.85;9.07;;;;;;;;;;5013013;28;20101;-68
2023/09/04 06:31:44;;;;;;;23.75;10.68;;;;;;;;;;5012040;28;20041;-68
2023/09/04 06:34:10;;;;;;;23.33;10.20;;;;;;;;;;5016898;28;20041;-68
2023/09/04 06:36:36;;;;;;;22.02;10.15;;;;;;;;;;5012422;28;20036;-68
2023/09/04 06:39:03;;;;;;;20.02;9.70;;;;;;;;;;5016877;28;20049;-68
2023/09/04 06:41:29;;;;;;;18.48;9.75;;;;;;;;;;5017838;28;20501;-68
2023/09/04 06:43:55;;;;;;;18.10;9.07;;;;;;;;;;5013192;28;20042;-68
2023/09/04 06:46:20;;;;;;;17.33;8.82;;;;;;;;;;5011140;28;20147;-68
2023/09/04 06:48:46;;;;;;;17.38;9.15;;;;;;;;;;5016308;28;20792;-68
2023/09/04 06:51:11;;;;;;;17.27;8.82;;;;;;;;;;5008495;28;20061;-68
2023/09/04 06:53:36;;;;;;;20.70;9.65;;;;;;;;;;4995036;28;20042;-68
2023/09/04 06:56:02;;;;;;;18.75;9.27;;;;;;;;;;4988103;28;20105;-68
2023/09/04 06:58:28;;;;;;;18.80;9.00;;;;;;;;;;5001740;28;20052;-68
2023/09/04 07:00:54;;;;;;;21.08;9.70;;;;;;;;;;4997778;28;20027;-68
2023/09/04 07:03:21;;;;;;;18.85;9.20;;;;;;;;;;5013410;28;20052;-68
2023/09/04 07:05:47;;;;;;;15.65;8.73;;;;;;;;;;5017011;28;20407;-68
2023/09/04 07:08:12;;;;;;;17.08;8.82;;;;;;;;;;5008926;28;20088;-68
2023/09/04 07:10:37;;;;;;;15.48;9.05;;;;;;;;;;5017229;28;20491;-68
2023/09/04 07:13:03;;;;;;;17.75;9.65;;;;;;;;;;5008309;28;20029;-68
2023/09/04 07:15:28;;;;;;;18.17;8.90;;;;;;;;;;4993745;28;20038;-68
2023/09/04 07:17:54;;;;;;;16.10;8.68;;;;;;;;;;5002096;28;20121;-68
2023/09/04 07:20:19;;;;;;;16.58;8.65;;;;;;;;;;5017548;28;20045;-68
2023/09/04 07:22:45;;;;;;;20.88;9.32;;;;;;;;;;5011106;28;20030;-68
2023/09/04 07:25:11;;;;;;;15.95;9.10;;;;;;;;;;5010428;28;20045;-68
2023/09/04 07:27:37;;;;;;;17.27;8.98;;;;;;;;;;5017230;28;20034;-68
2023/09/04 07:30:03;;;;;;;17.88;8.93;;;;;;;;;;5017076;28;20036;-68
2023/09/04 07:32:28;;;;;;;16.85;9.27;;;;;;;;;;5012390;28;20041;-68
2023/09/04 07:34:56;;;;;;;21.48;8.93;;;;;;;;;;5011350;28;20046;-68
2023/09/04 07:37:23;;;;;;;16.30;8.73;;;;;;;;;;5017834;28;20033;-68
2023/09/04 07:39:48;;;;;;;19.02;9.05;;;;;;;;;;5011473;28;20053;-68
2023/09/04 07:42:13;;;;;;;19.15;8.90;;;;;;;;;;5016048;28;20044;-68
2023/09/04 07:44:39;;;;;;;18.52;8.48;;;;;;;;;;5020316;28;20103;-68
2023/09/04 07:47:04;;;;;;;15.02;8.68;;;;;;;;;;5018787;28;20042;-68
2023/09/04 07:49:29;;;;;;;17.55;9.43;;;;;;;;;;5008011;28;20128;-68
2023/09/04 07:51:55;;;;;;;15.63;8.40;;;;;;;;;;5014989;28;20104;-68
2023/09/04 07:54:21;;;;;;;15.65;8.63;;;;;;;;;;5004035;28;20102;-67
2023/09/04 07:56:46;;;;;;;15.75;8.20;;;;;;;;;;5017111;28;20034;-67
2023/09/04 07:59:12;;;;;;;14.82;7.78;;;;;;;;;;5015326;28;20423;-67
2023/09/04 08:01:37;;;;;;;16.45;8.65;;;;;;;;;;5010436;28;20096;-67
2023/09/04 08:04:03;;;;;;;17.15;8.23;;;;;;;;;;5012344;28;20049;-67
2023/09/04 08:06:28;;;;;;;19.77;9.02;;;;;;;;;;5017558;28;20045;-67
2023/09/04 08:08:54;;;;;;;15.73;8.23;;;;;;;;;;5016032;28;20044;-67
2023/09/04 08:11:19;;;;;;;15.85;8.07;;;;;;;;;;5010511;28;20714;-67
2023/09/04 08:13:45;;;;;;;17.88;7.72;;;;;;;;;;5000541;28;20030;-67
2023/09/04 08:16:10;;;;;;;14.23;8.00;;;;;;;;;;5009717;28;20028;-67
2023/09/04 08:18:35;;;;;;;15.07;8.30;;;;;;;;;;5011494;28;20053;-67
2023/09/04 08:21:01;;;;;;;16.63;8.00;;;;;;;;;;5016976;28;20084;-67
2023/09/04 08:23:26;;;;;;;14.65;7.25;;;;;;;;;;5017886;28;20040;-67
2023/09/04 08:26:03;;;;;;;21.00;7.45;;;;;;;;;;5013677;28;20041;-67
2023/09/04 08:28:28;;;;;;;16.30;7.72;;;;;;;;;;5013692;28;20038;-68
2023/09/04 08:30:54;;;;;;;12.70;7.18;;;;;;;;;;5014625;28;20049;-67
2023/09/04 08:33:19;;;;;;;17.70;7.30;;;;;;;;;;5004257;28;20160;-67
2023/09/04 08:35:45;;;;;;;14.52;7.00;;;;;;;;;;5018067;28;20423;-68
2023/09/04 08:38:10;;;;;;;12.45;6.80;;;;;;;;;;5006429;28;20515;-68
2023/09/04 08:40:39;;;;;;;19.17;7.38;;;;;;;;;;5015609;28;20044;-69
2023/09/04 08:43:07;;;;;;;14.07;7.13;;;;;;;;;;5005400;28;20048;-69
2023/09/04 08:45:34;;;;;;;13.07;6.70;;;;;;;;;;5013866;28;20531;-69
2023/09/04 08:48:02;;;;;;;16.58;7.43;;;;;;;;;;5012056;28;20041;-69
2023/09/04 08:50:28;;;;;;;17.83;7.13;;;;;;;;;;5015971;28;20163;-68
2023/09/04 08:52:53;;;;;;;15.13;6.65;;;;;;;;;;5019909;28;20172;-69
2023/09/04 08:55:20;;;;;;;15.98;7.10;;;;;;;;;;5006663;28;20033;-69
2023/09/04 08:57:45;;;;;;;12.50;6.18;;;;;;;;;;5014457;28;20029;-69
2023/09/04 09:00:11;;;;;;;19.58;6.93;;;;;;;;;;5014037;28;20026;-68
2023/09/04 09:02:38;;;;;;;17.15;6.90;;;;;;;;;;5020066;28;20474;-69
2023/09/04 09:05:04;;;;;;;12.00;6.75;;;;;;;;;;4991239;28;20073;-68
2023/09/04 09:07:30;;;;;;;15.02;6.18;;;;;;;;;;5005959;28;20054;-68
2023/09/04 09:10:01;;;;;;;12.20;6.80;;;;;;;;;;5004930;28;20090;-68
2023/09/04 09:12:27;;;;;;;16.25;6.88;;;;;;;;;;5031028;28;20037;-68
2023/09/04 09:14:53;;;;;;;19.48;6.55;;;;;;;;;;5021314;28;20091;-68
2023/09/04 09:17:18;;;;;;;13.50;6.65;;;;;;;;;;5013717;28;20112;-68
2023/09/04 09:19:44;;;;;;;12.98;5.30;;;;;;;;;;5018009;28;20195;-68
2023/09/04 09:22:14;;;;;;;10.05;5.88;;;;;;;;;;5019747;28;20025;-68
2023/09/04 09:25:06;;;;;;;17.42;5.85;;;;;;;;;;5005980;28;20392;-68
2023/09/04 09:27:32;;;;;;;17.30;6.30;;;;;;;;;;5004698;28;20045;-68
2023/09/04 09:30:00;;;;;;;11.02;5.60;;;;;;;;;;5017849;28;20088;-68
2023/09/04 09:32:30;;;;;;;10.93;5.80;;;;;;;;;;4997431;28;20104;-68
2023/09/04 09:34:58;;;;;;;14.90;6.22;;;;;;;;;;5018896;28;20037;-68
2023/09/04 09:37:25;;;;;;;16.95;7.30;;;;;;;;;;5014701;28;20029;-68
2023/09/04 09:39:51;;;;;;;13.45;5.30;;;;;;;;;;5004500;28;20057;-68
2023/09/04 09:42:17;;;;;;;12.55;5.57;;;;;;;;;;5005812;28;20045;-68
2023/09/04 09:44:43;;;;;;;12.13;5.40;;;;;;;;;;5012503;28;20052;-68
2023/09/04 09:47:12;;;;;;;13.75;7.45;;;;;;;;;;5015957;28;20053;-68
2023/09/04 09:49:40;;;;;;;13.82;6.90;;;;;;;;;;5018631;28;20117;-68
2023/09/04 09:52:08;;;;;;;15.40;7.57;;;;;;;;;;5016167;28;20115;-68
2023/09/04 09:54:39;;;;;;;20.25;7.90;;;;;;;;;;5018744;28;20102;-68
2023/09/04 09:57:10;;;;;;;22.77;7.85;;;;;;;;;;5020854;28;20095;-68
2023/09/04 09:59:38;;;;;;;14.50;6.93;;;;;;;;;;5018206;28;20065;-68
2023/09/04 10:02:05;;;;;;;12.40;7.07;;;;;;;;;;4987456;28;20062;-68
2023/09/04 10:04:32;;;;;;;12.63;7.20;;;;;;;;;;4994331;28;20042;-68
2023/09/04 10:07:02;;;;;;;14.68;7.45;;;;;;;;;;5015317;28;20498;-68
2023/09/04 10:09:34;;;;;;;14.00;6.80;;;;;;;;;;5003097;28;20038;-68
2023/09/04 10:12:07;;;;;;;10.80;6.50;;;;;;;;;;5003505;28;20045;-68
2023/09/04 10:14:38;;;;;;;16.65;6.72;;;;;;;;;;4991841;28;20404;-68
2023/09/04 10:17:08;;;;;;;10.90;6.20;;;;;;;;;;5006524;28;20509;-68
2023/09/04 10:19:36;;;;;;;12.60;6.80;;;;;;;;;;4991737;28;20057;-68
2023/09/04 10:22:11;;;;;;;13.43;6.85;;;;;;;;;;5019087;28;20053;-68
2023/09/04 10:24:51;;;;;;;14.13;7.43;;;;;;;;;;5017457;28;20094;-68
2023/09/04 10:27:17;;;;;;;14.25;7.05;;;;;;;;;;5001728;28;20038;-68
2023/09/04 10:29:54;;;;;;;11.48;6.05;;;;;;;;;;5012226;28;20129;-68
2023/09/04 10:32:19;;;;;;;11.27;6.22;;;;;;;;;;5000367;28;20041;-68
2023/09/04 10:34:45;;;;;;;11.38;6.55;;;;;;;;;;5011753;28;20041;-68
2023/09/04 10:37:12;;;;;;;10.00;6.40;;;;;;;;;;5031837;28;20029;-68
2023/09/04 10:39:39;;;;;;;10.70;6.55;;;;;;;;;;5016095;28;20114;-68
2023/09/04 10:42:05;;;;;;;10.40;6.20;;;;;;;;;;5013154;28;20065;-68
2023/09/04 10:44:49;;;;;;;9.68;5.55;;;;;;;;;;5018092;28;20459;-68
2023/09/04 10:47:15;;;;;;;9.25;5.32;;;;;;;;;;5016073;28;20046;-68
2023/09/04 10:49:44;;;;;;;11.95;6.07;;;;;;;;;;4999089;28;20116;-68
2023/09/04 10:52:11;;;;;;;10.23;6.03;;;;;;;;;;5011115;28;20092;-68
2023/09/04 10:54:37;;;;;;;11.07;5.75;;;;;;;;;;4999410;28;20029;-68
2023/09/04 10:57:06;;;;;;;11.25;5.90;;;;;;;;;;4993637;28;20027;-68
2023/09/04 10:59:54;;;;;;;13.10;5.28;;;;;;;;;;4990922;28;20113;-68
2023/09/04 11:02:30;;;;;;;9.20;4.93;;;;;;;;;;5003247;28;20046;-68
2023/09/04 11:04:57;;;;;;;9.07;5.18;;;;;;;;;;4987180;28;20081;-68
2023/09/04 11:07:28;;;;;;;9.48;5.40;;;;;;;;;;5002025;28;20439;-68
2023/09/04 11:10:03;;;;;;;7.15;5.15;;;;;;;;;;4998780;28;20717;-68
2023/09/04 11:12:33;;;;;;;7.57;5.20;;;;;;;;;;5000522;28;20030;-68
2023/09/04 11:14:58;;;;;;;7.60;4.65;;;;;;;;;;5015109;28;20034;-68
2023/09/04 11:17:31;;;;;;;7.45;4.88;;;;;;;;;;5015838;28;20767;-68
2023/09/04 11:20:00;;;;;;;8.02;4.90;;;;;;;;;;4992543;28;20105;-68
2023/09/04 11:22:25;;;;;;;6.32;4.88;;;;;;;;;;5013420;28;20423;-68
2023/09/04 11:24:54;;;;;;;6.95;4.55;;;;;;;;;;5013296;28;20036;-68
2023/09/04 11:27:20;;;;;;;5.78;3.95;;;;;;;;;;5017374;28;20038;-68
2023/09/04 11:29:47;;;;;;;6.60;4.55;;;;;;;;;;5016058;28;20038;-68
2023/09/04 11:32:12;;;;;;;11.15;4.82;;;;;;;;;;5010411;28;20036;-68
2023/09/04 11:34:41;;;;;;;8.48;4.75;;;;;;;;;;5012279;28;20037;-68
2023/09/04 11:37:07;;;;;;;7.40;4.93;;;;;;;;;;5015160;28;20039;-68
2023/09/04 11:39:32;;;;;;;7.88;4.53;;;;;;;;;;5000141;28;20054;-68
2023/09/04 11:42:00;;;;;;;6.50;4.22;;;;;;;;;;4999666;28;20041;-68
2023/09/04 11:44:26;;;;;;;8.05;5.05;;;;;;;;;;5011216;28;20116;-68
2023/09/04 11:46:51;;;;;;;6.70;4.95;;;;;;;;;;5016020;28;21922;-68
2023/09/04 11:49:17;;;;;;;8.32;4.88;;;;;;;;;;5017362;28;20038;-68
2023/09/04 11:51:44;;;;;;;7.30;4.53;;;;;;;;;;5010282;28;20084;-68
2023/09/04 11:54:10;;;;;;;7.15;4.95;;;;;;;;;;5020186;28;20048;-68
2023/09/04 11:56:36;;;;;;;6.38;4.60;;;;;;;;;;5011513;28;20177;-68
2023/09/04 11:59:04;;;;;;;8.75;4.78;;;;;;;;;;5020634;28;20132;-68
2023/09/04 12:01:30;;;;;;;7.90;4.60;;;;;;;;;;5024893;28;20030;-68
2023/09/04 12:03:55;;;;;;;6.22;4.45;;;;;;;;;;5025638;28;20057;-68
2023/09/04 12:06:25;;;;;;;5.80;3.78;;;;;;;;;;5014292;28;20042;-68
2023/09/04 12:08:50;;;;;;;5.45;3.67;;;;;;;;;;4997228;28;20060;-68
2023/09/04 12:11:16;;;;;;;27.45;5.20;;;;;;;;;;5020957;28;20064;-68
2023/09/04 12:13:42;;;;;;;5.85;4.22;;;;;;;;;;5019105;28;20045;-68
2023/09/04 12:16:09;;;;;;;4.13;3.17;;;;;;;;;;5014349;28;20033;-68
2023/09/04 12:18:36;;;;;;;7.45;3.80;;;;;;;;;;5016108;28;20056;-68
2023/09/04 12:21:05;;;;;;;6.07;3.67;;;;;;;;;;5020156;28;20046;-68
2023/09/04 12:23:44;;;;;;;4.75;3.53;;;;;;;;;;5018425;28;20828;-68
2023/09/04 12:26:12;;;;;;;5.38;3.53;;;;;;;;;;5003611;28;20519;-68
2023/09/04 12:28:38;;;;;;;10.15;4.00;;;;;;;;;;5014016;28;20137;-68
2023/09/04 12:31:06;;;;;;;6.00;4.10;;;;;;;;;;5018908;28;20113;-68
2023/09/04 12:33:35;;;;;;;6.53;4.13;;;;;;;;;;5012927;28;20128;-68
2023/09/04 12:36:01;;;;;;;9.40;4.38;;;;;;;;;;5017013;28;20541;-68
2023/09/04 12:38:26;;;;;;;4.70;3.55;;;;;;;;;;5018354;28;20265;-68
2023/09/04 12:40:51;;;;;;;4.40;3.00;;;;;;;;;;5017347;28;20037;-68
2023/09/04 12:43:17;;;;;;;3.97;3.17;;;;;;;;;;5013762;28;20025;-68
2023/09/04 12:45:43;;;;;;;4.18;3.03;;;;;;;;;;5014739;28;20040;-68
2023/09/04 12:48:16;;;;;;;5.25;2.92;;;;;;;;;;5020081;28;20042;-68
2023/09/04 12:50:42;;;;;;;5.10;3.35;;;;;;;;;;5017362;28;20033;-68
2023/09/04 12:53:07;;;;;;;5.03;3.53;;;;;;;;;;5012624;28;20033;-68
2023/09/04 12:55:32;;;;;;;7.60;3.95;;;;;;;;;;5013802;28;20030;-68
2023/09/04 12:58:06;;;;;;;5.47;3.75;;;;;;;;;;5010019;28;20026;-68
2023/09/04 13:00:32;;;;;;;5.38;3.63;;;;;;;;;;5003106;28;20144;-68
2023/09/04 13:02:57;;;;;;;5.70;3.67;;;;;;;;;;4993886;28;20506;-68
2023/09/04 13:05:23;;;;;;;4.63;3.70;;;;;;;;;;4989628;28;20061;-69
2023/09/04 13:07:49;;;;;;;4.10;3.30;;;;;;;;;;4998371;28;20049;-69
2023/09/04 13:10:14;;;;;;;5.32;3.40;;;;;;;;;;5006276;28;20025;-68
2023/09/04 13:12:40;;;;;;;4.88;3.55;;;;;;;;;;5011586;28;20028;-69
2023/09/04 13:15:06;;;;;;;5.38;4.00;;;;;;;;;;5016344;28;20084;-69
2023/09/04 13:17:31;;;;;;;4.75;3.33;;;;;;;;;;5008273;28;20029;-68
2023/09/04 13:19:56;;;;;;;4.20;3.42;;;;;;;;;;5007132;28;20490;-69
2023/09/04 13:22:22;;;;;;;4.40;3.38;;;;;;;;;;4999746;28;20099;-68
2023/09/04 13:24:47;;;;;;;4.72;3.45;;;;;;;;;;5020555;28;20415;-68
2023/09/04 13:27:13;;;;;;;4.95;3.78;;;;;;;;;;5024310;28;20408;-68
2023/09/04 13:29:38;;;;;;;4.28;3.17;;;;;;;;;;5016478;28;20132;-67
2023/09/04 13:32:04;;;;;;;5.22;3.40;;;;;;;;;;5013177;28;20400;-67
2023/09/04 13:34:29;;;;;;;4.45;3.63;;;;;;;;;;5014315;28;20033;-67
2023/09/04 13:36:55;;;;;;;5.47;3.35;;;;;;;;;;5015920;28;20025;-67
2023/09/04 13:39:20;;;;;;;6.78;3.40;;;;;;;;;;5014317;28;20561;-68
2023/09/04 13:41:45;;;;;;;7.00;3.75;;;;;;;;;;5019045;28;20482;-67
2023/09/04 13:44:11;;;;;;;4.82;3.25;;;;;;;;;;5017836;28;20049;-68
2023/09/04 13:46:36;;;;;;;5.28;3.58;;;;;;;;;;5012511;28;20116;-67
2023/09/04 13:49:02;;;;;;;5.68;3.45;;;;;;;;;;5014863;28;20446;-67
2023/09/04 13:51:27;;;;;;;4.90;3.38;;;;;;;;;;5019347;28;20702;-68
2023/09/04 13:53:52;;;;;;;7.38;3.47;;;;;;;;;;5006112;28;20038;-67
2023/09/04 13:56:18;;;;;;;6.13;3.90;;;;;;;;;;5012857;28;20038;-67
2023/09/04 13:58:43;;;;;;;4.38;3.47;;;;;;;;;;5013622;28;20097;-68
2023/09/04 14:01:15;;;;;;;5.47;3.63;;;;;;;;;;5011053;28;20034;-67
2023/09/04 14:03:41;;;;;;;6.40;3.90;;;;;;;;;;5017561;28;20034;-68
2023/09/04 14:06:07;;;;;;;7.03;3.53;;;;;;;;;;5019075;28;20045;-67
2023/09/04 14:08:32;;;;;;;5.50;3.65;;;;;;;;;;5014853;28;20041;-68
2023/09/04 14:10:58;;;;;;;6.05;3.80;;;;;;;;;;5012056;28;20061;-67
2023/09/04 14:13:24;;;;;;;4.68;4.15;;;;;;;;;;5016729;28;20935;-67
2023/09/04 14:15:49;;;;;;;6.50;3.92;;;;;;;;;;5019289;28;20636;-68
2023/09/04 14:18:14;;;;;;;6.65;4.80;;;;;;;;;;5014711;28;20040;-67
2023/09/04 14:20:41;;;;;;;6.45;4.38;;;;;;;;;;5012461;28;20044;-68
2023/09/04 14:23:07;;;;;;;4.47;3.60;;;;;;;;;;5015332;28;20296;-67
2023/09/04 14:25:33;;;;;;;7.05;3.67;;;;;;;;;;5018117;28;20136;-68